»·PEaware :: N81041 1G4-KGCN

N81041 :: 1G4-KGCN

FLIGHT INFORMATION

Flight Status: Arrived
Operator: Privately registered:
United States
More flights under this callsign
Pilot: John C. (12173)
Aircraft: GRUMMAN AERO AA5 CHEETAH TIGER
(AA5)
More flights by this aircraft type
Origin: 1G4 Grand Canyon West
United States
Destination: KGCN Grand Canyon Natl Park
United States
More flights between these airports :: More routes between these airports
Route: MILKI V562 PGS V208 GCN
File this flight plan on PilotEdge
Remarks:
Altitude:
(Current/Filed)
9,000ft
Speed:
(Current/Filed)
130kts
Departed: 10-Oct-19 08:12 PM
Arrived: 10-Oct-19 09:05 PM
Distance/Time
Traveled:
81nm/0:53
Distance/Time
To Go:
Arrived

Flight Plot

Page will automatically refresh every two minutes.

Flight plan parsing failed; only flown route is shown


Map Options




Map Legend


Flown Route
Filed Route
Departure Airport
Arrival Airport
Navaid (VOR, NDB)
Fix

Horizontal Profiles

Position Reports

Time Latitude Longitude Heading Altitude Ground
Speed
10-Oct-19 20:02 35.990208 -113.816435 185 4762ft 0kts
10-Oct-19 20:03 35.983468 -113.817241 0 4786ft 0kts
10-Oct-19 20:04 35.983468 -113.817241 0 4786ft 0kts
10-Oct-19 20:05 35.983468 -113.817241 0 4786ft 0kts
10-Oct-19 20:06 35.983468 -113.817241 0 4786ft 0kts
10-Oct-19 20:07 35.983468 -113.817241 0 4786ft 0kts
10-Oct-19 20:08 35.983468 -113.817241 0 4786ft 0kts
10-Oct-19 20:09 35.983468 -113.817241 0 4786ft 0kts
10-Oct-19 20:10 35.983852 -113.817243 349 4785ft 0kts
10-Oct-19 20:11 35.998844 -113.815451 3 5192ft 92kts
10-Oct-19 20:12 36.024831 -113.813602 3 6265ft 100kts
10-Oct-19 20:13 36.048783 -113.802308 91 7230ft 110kts
10-Oct-19 20:14 36.023361 -113.791692 174 8309ft 99kts
10-Oct-19 20:15 35.993523 -113.788054 174 9032ft 123kts
10-Oct-19 20:16 35.958435 -113.778383 163 9045ft 132kts
10-Oct-19 20:17 35.923946 -113.764603 163 8995ft 131kts
10-Oct-19 20:18 35.889746 -113.750718 157 9003ft 129kts
10-Oct-19 20:19 35.855199 -113.738633 164 9003ft 130kts
10-Oct-19 20:20 35.820847 -113.726294 155 9019ft 130kts
10-Oct-19 20:21 35.786876 -113.711715 157 9036ft 130kts
10-Oct-19 20:23 35.752597 -113.697969 158 9132ft 130kts
10-Oct-19 20:24 35.717156 -113.688919 166 9275ft 131kts
10-Oct-19 20:25 35.690066 -113.662542 125 9445ft 130kts
10-Oct-19 20:26 35.668976 -113.626280 125 9582ft 132kts
10-Oct-19 20:27 35.648789 -113.588952 125 9744ft 131kts
10-Oct-19 20:28 35.627357 -113.552769 128 9882ft 132kts
10-Oct-19 20:29 35.624571 -113.513138 60 10007ft 130kts
10-Oct-19 20:30 35.640662 -113.473710 65 10232ft 129kts
10-Oct-19 20:31 35.652663 -113.431844 70 10415ft 130kts
10-Oct-19 20:32 35.662688 -113.388939 76 10593ft 131kts
10-Oct-19 20:33 35.672074 -113.345793 73 10776ft 130kts
10-Oct-19 20:34 35.683187 -113.303400 78 10911ft 133kts
10-Oct-19 20:35 35.693810 -113.261909 67 10752ft 136kts
10-Oct-19 20:36 35.706449 -113.217419 77 10255ft 138kts
10-Oct-19 20:37 35.716952 -113.172242 75 9790ft 136kts
10-Oct-19 20:38 35.724394 -113.126657 78 9316ft 137kts
10-Oct-19 20:39 35.735765 -113.082430 74 9098ft 135kts
10-Oct-19 20:40 35.745483 -113.037629 75 8997ft 136kts
10-Oct-19 20:41 35.755480 -112.993143 66 8952ft 136kts
10-Oct-19 20:41 35.767288 -112.957396 72 8988ft 135kts
10-Oct-19 20:42 35.777319 -112.912984 69 9006ft 135kts
10-Oct-19 20:44 35.788125 -112.861582 81 9019ft 135kts
10-Oct-19 20:45 35.798628 -112.817309 77 9034ft 135kts
10-Oct-19 20:45 35.805759 -112.779619 75 9040ft 135kts
10-Oct-19 20:46 35.815221 -112.734618 74 9036ft 135kts
10-Oct-19 20:47 35.824893 -112.689760 68 9031ft 136kts
10-Oct-19 20:48 35.835554 -112.645313 64 9023ft 136kts
10-Oct-19 20:49 35.847787 -112.601718 85 9027ft 136kts
10-Oct-19 20:50 35.856392 -112.556641 80 9032ft 135kts
10-Oct-19 20:51 35.866532 -112.511973 76 9042ft 136kts
10-Oct-19 20:52 35.878661 -112.468082 65 9074ft 134kts
10-Oct-19 20:53 35.890225 -112.426403 75 9045ft 121kts
10-Oct-19 20:54 35.899959 -112.387236 78 9041ft 119kts
10-Oct-19 20:55 35.874952 -112.368642 165 8987ft 120kts
10-Oct-19 20:56 35.846510 -112.349945 139 8949ft 119kts
10-Oct-19 20:57 35.823836 -112.321316 111 8940ft 118kts
10-Oct-19 20:58 35.838480 -112.288338 47 8714ft 117kts
10-Oct-19 20:59 35.860708 -112.260685 38 8289ft 117kts
10-Oct-19 21:00 35.886176 -112.236420 44 8225ft 115kts
10-Oct-19 21:01 35.907296 -112.209788 50 7943ft 113kts
10-Oct-19 21:02 35.929525 -112.183120 38 7419ft 112kts
10-Oct-19 21:03 35.943495 -112.156304 38 6604ft 87kts
10-Oct-19 21:04 35.954359 -112.144916 45 6581ft 26kts
10-Oct-19 21:05 35.956299 -112.141239 142 6596ft 8kts
10-Oct-19 21:06 35.956219 -112.141164 142 6596ft 0kts
10-Oct-19 21:07 35.956219 -112.141164 142 6596ft 0kts
10-Oct-19 21:08 35.956219 -112.141164 142 6596ft 0kts
10-Oct-19 21:09 35.956219 -112.141164 142 6596ft 0kts

Navigation Log

Ident Type
Flight plan parsing failed, navigation log unavailable